Time;durP1;ratioP1;P1;durP2;ratioP2;P2;SDS_P1;SDS_P2;PMS_P1;PMS_P2;Temp;Humidity;BMP_temperature;BMP_pressure;BME280_temperature;BME280_humidity;BME280_pressure;Samples;Min_cycle;Max_cycle;Signal;HPM_P1;HPM_P2
2023/03/08 00:01:34;;;;;;;1999.90;999.90;;;10.10;99.90;;;;;;5012486;28;20492;-75
2023/03/08 00:04:00;;;;;;;1999.90;999.90;;;10.10;99.90;;;;;;5013441;28;20477;-75
2023/03/08 00:06:26;;;;;;;1999.90;999.90;;;10.10;99.90;;;;;;5013215;28;20033;-75
2023/03/08 00:09:00;;;;;;;1999.90;999.90;;;10.00;99.90;;;;;;5012951;28;20076;-74
2023/03/08 00:11:26;;;;;;;1999.90;999.90;;;10.00;99.90;;;;;;5012961;28;20110;-75
2023/03/08 00:13:53;;;;;;;1999.90;999.90;;;10.00;99.90;;;;;;5013096;28;20084;-75
2023/03/08 00:16:19;;;;;;;1999.90;999.90;;;10.00;99.90;;;;;;4996203;28;20030;-75
2023/03/08 00:18:45;;;;;;;1999.90;999.90;;;10.00;99.90;;;;;;5008382;28;20029;-74
2023/03/08 00:21:13;;;;;;;1999.90;999.90;;;10.00;99.90;;;;;;4993341;28;20493;-75
2023/03/08 00:23:40;;;;;;;1999.90;999.90;;;10.10;99.90;;;;;;4993295;28;20027;-74
2023/03/08 00:26:05;;;;;;;1999.90;999.90;;;10.10;99.90;;;;;;4993619;28;20026;-73
2023/03/08 00:28:31;;;;;;;1999.90;999.90;;;10.10;99.90;;;;;;5008264;28;20030;-75
2023/03/08 00:31:03;;;;;;;1999.90;999.90;;;10.10;99.90;;;;;;4993258;28;20023;-74
2023/03/08 00:33:31;;;;;;;1999.90;999.90;;;10.10;99.90;;;;;;5024659;28;20022;-75
2023/03/08 00:36:00;;;;;;;1999.90;999.90;;;10.10;99.90;;;;;;4993329;28;20401;-74
2023/03/08 00:38:27;;;;;;;1999.90;999.90;;;10.20;99.90;;;;;;4993572;28;20362;-73
2023/03/08 00:40:53;;;;;;;1999.90;999.90;;;10.20;99.90;;;;;;5025251;28;20115;-74
2023/03/08 00:43:20;;;;;;;1999.90;999.90;;;10.30;99.90;;;;;;5032907;28;20104;-73
2023/03/08 00:45:45;;;;;;;1999.90;999.90;;;10.30;99.90;;;;;;5025486;28;20030;-74
2023/03/08 00:48:11;;;;;;;1999.90;999.90;;;10.30;99.90;;;;;;5012737;28;20414;-75
2023/03/08 00:50:37;;;;;;;1999.90;999.90;;;10.30;99.90;;;;;;5012624;28;20034;-75
2023/03/08 00:53:03;;;;;;;1999.90;999.90;;;10.30;99.90;;;;;;5012890;28;20483;-74
2023/03/08 00:55:28;;;;;;;1999.90;999.90;;;10.30;99.90;;;;;;5012771;28;20038;-74
2023/03/08 00:57:54;;;;;;;1999.90;999.90;;;10.30;99.90;;;;;;5012633;28;20078;-74
2023/03/08 01:00:20;;;;;;;1999.90;999.90;;;10.30;99.90;;;;;;5012679;28;20025;-74
2023/03/08 01:02:45;;;;;;;1999.90;999.90;;;10.40;99.90;;;;;;5012424;28;20022;-74
2023/03/08 01:05:12;;;;;;;1999.90;999.90;;;10.40;99.90;;;;;;5012778;28;20037;-74
2023/03/08 01:07:38;;;;;;;1999.90;999.90;;;10.40;99.90;;;;;;5012339;28;20519;-73
2023/03/08 01:10:04;;;;;;;1999.90;999.90;;;10.50;99.90;;;;;;5013329;28;20034;-74
2023/03/08 01:12:34;;;;;;;1999.90;999.90;;;10.50;99.90;;;;;;5016253;28;20029;-74
2023/03/08 01:15:00;;;;;;;1999.90;999.90;;;10.50;99.90;;;;;;5010166;28;20030;-75
2023/03/08 01:17:25;;;;;;;1999.90;999.90;;;10.50;99.90;;;;;;4996007;28;20500;-74
2023/03/08 01:19:51;;;;;;;1999.90;999.90;;;10.60;99.90;;;;;;4996699;28;20494;-75
2023/03/08 01:22:16;;;;;;;1999.90;999.90;;;10.60;99.90;;;;;;4996385;28;20019;-74
2023/03/08 01:24:46;;;;;;;1999.90;999.90;;;10.70;99.90;;;;;;4996393;28;20528;-73
2023/03/08 01:27:12;;;;;;;1999.90;999.90;;;10.80;99.90;;;;;;4996434;28;20552;-76
2023/03/08 01:29:38;;;;;;;1999.90;999.90;;;10.80;99.90;;;;;;5027844;28;20049;-73
2023/03/08 01:32:04;;;;;;;1999.90;999.90;;;10.70;99.90;;;;;;4996330;28;20030;-74
2023/03/08 01:34:29;;;;;;;1999.90;999.90;;;10.80;99.90;;;;;;4996255;28;20394;-74
2023/03/08 01:36:55;;;;;;;1999.90;999.90;;;10.70;99.90;;;;;;4996231;28;20038;-75
2023/03/08 01:39:21;;;;;;;1999.90;999.90;;;10.70;99.90;;;;;;5003027;28;20108;-75
2023/03/08 01:41:47;;;;;;;1999.90;999.90;;;10.80;99.90;;;;;;5035542;28;20017;-75
2023/03/08 01:44:17;;;;;;;1999.90;999.90;;;10.80;99.90;;;;;;5035832;28;20033;-76
2023/03/08 01:46:43;;;;;;;1999.90;999.90;;;10.90;99.90;;;;;;5020268;28;20046;-75
2023/03/08 01:49:13;;;;;;;1999.90;999.90;;;10.80;99.90;;;;;;5015591;28;20440;-76
2023/03/08 01:52:01;;;;;;;1999.90;999.90;;;10.80;99.90;;;;;;5015360;28;20030;-76
2023/03/08 01:54:28;;;;;;;1999.90;999.90;;;10.90;99.90;;;;;;5015278;28;20029;-76
2023/03/08 01:57:00;;;;;;;1999.90;999.90;;;10.80;99.90;;;;;;5015643;28;20050;-76
2023/03/08 01:59:26;;;;;;;1999.90;999.90;;;10.90;99.90;;;;;;5015172;28;20018;-74
2023/03/08 02:01:52;;;;;;;1999.90;999.90;;;10.90;99.90;;;;;;5014655;28;20481;-75
2023/03/08 02:04:18;;;;;;;1999.90;999.90;;;10.90;99.90;;;;;;5015641;28;20034;-74
2023/03/08 02:06:44;;;;;;;1999.90;999.90;;;10.90;99.90;;;;;;5015127;28;20018;-74
2023/03/08 02:09:10;;;;;;;1999.90;999.90;;;10.90;99.90;;;;;;5015118;28;20026;-73
2023/03/08 02:11:39;;;;;;;1999.90;999.90;;;10.90;99.90;;;;;;5014957;28;20083;-75
2023/03/08 02:14:05;;;;;;;1999.90;999.90;;;10.90;99.90;;;;;;5015342;28;20083;-75
2023/03/08 02:16:30;;;;;;;1999.90;999.90;;;10.90;99.90;;;;;;4996747;28;20057;-75
2023/03/08 02:18:58;;;;;;;1999.90;999.90;;;10.90;99.90;;;;;;4995349;28;20078;-76
2023/03/08 02:21:26;;;;;;;1999.90;999.90;;;10.90;99.90;;;;;;4994648;28;20030;-75
2023/03/08 02:23:52;;;;;;;1999.90;999.90;;;10.90;99.90;;;;;;4995327;28;20049;-76
2023/03/08 02:26:18;;;;;;;1999.90;999.90;;;10.90;99.90;;;;;;4995366;28;20489;-75
2023/03/08 02:28:44;;;;;;;1999.90;999.90;;;10.90;99.90;;;;;;4995584;28;20112;-76
2023/03/08 02:31:10;;;;;;;1999.90;999.90;;;10.90;99.90;;;;;;4995497;28;20023;-79
2023/03/08 02:33:36;;;;;;;1999.90;999.90;;;10.90;99.90;;;;;;4995518;28;20040;-76
2023/03/08 02:36:03;;;;;;;1999.90;999.90;;;10.90;99.90;;;;;;4994918;28;20400;-76
2023/03/08 02:38:29;;;;;;;1999.90;999.90;;;10.90;99.90;;;;;;4994899;28;20409;-75
2023/03/08 02:40:55;;;;;;;1999.90;999.90;;;10.90;99.90;;;;;;4994841;28;20023;-75
2023/03/08 02:43:20;;;;;;;1999.90;999.90;;;10.90;99.90;;;;;;4994810;28;20058;-78
2023/03/08 02:45:46;;;;;;;1999.90;999.90;;;10.90;99.90;;;;;;5002116;28;20038;-76
2023/03/08 02:48:13;;;;;;;1999.90;999.90;;;10.90;99.90;;;;;;5014153;28;20509;-75
2023/03/08 02:50:39;;;;;;;1999.90;999.90;;;10.90;99.90;;;;;;5014311;28;20033;-76
2023/03/08 02:53:05;;;;;;;1999.90;999.90;;;10.90;99.90;;;;;;5013003;28;20030;-75
2023/03/08 02:55:30;;;;;;;1999.90;999.90;;;11.00;99.90;;;;;;5014323;28;20117;-80
2023/03/08 02:57:56;;;;;;;1999.90;999.90;;;10.90;99.90;;;;;;5014374;28;20049;-79
2023/03/08 03:00:22;;;;;;;1999.90;999.90;;;10.90;99.90;;;;;;5014285;28;20075;-75
2023/03/08 03:02:47;;;;;;;1999.90;999.90;;;10.90;99.90;;;;;;5013505;28;20487;-76
2023/03/08 03:05:13;;;;;;;1999.90;999.90;;;10.90;99.90;;;;;;5014173;28;20484;-76
2023/03/08 03:07:41;;;;;;;1999.90;999.90;;;10.90;99.90;;;;;;5014002;28;20033;-76
2023/03/08 03:10:09;;;;;;;1999.90;999.90;;;10.80;99.90;;;;;;5014517;28;20041;-77
2023/03/08 03:12:34;;;;;;;1999.90;999.90;;;10.90;99.90;;;;;;5014058;28;20033;-76
2023/03/08 03:15:01;;;;;;;1999.90;999.90;;;10.90;99.90;;;;;;5007682;28;20023;-75
2023/03/08 03:17:27;;;;;;;1999.90;999.90;;;10.80;99.90;;;;;;4994224;28;20061;-76
2023/03/08 03:19:53;;;;;;;1999.90;999.90;;;10.90;99.90;;;;;;4994619;28;20019;-75
2023/03/08 03:22:19;;;;;;;1999.90;999.90;;;10.80;99.90;;;;;;4994526;28;20239;-77
2023/03/08 03:24:44;;;;;;;1999.90;999.90;;;10.80;99.90;;;;;;4994088;28;20081;-79
2023/03/08 03:27:10;;;;;;;1999.90;999.90;;;10.80;99.90;;;;;;4994029;28;20126;-76
2023/03/08 03:29:37;;;;;;;1999.90;999.90;;;10.80;99.90;;;;;;4993805;28;20033;-76
2023/03/08 03:32:03;;;;;;;1999.90;999.90;;;10.70;99.90;;;;;;4994328;28;20031;-77
2023/03/08 03:34:28;;;;;;;1999.90;999.90;;;10.70;99.90;;;;;;4994259;28;20034;-76
2023/03/08 03:36:54;;;;;;;1999.90;999.90;;;10.70;99.90;;;;;;4994162;28;20101;-76
2023/03/08 03:39:20;;;;;;;1999.90;999.90;;;10.70;99.90;;;;;;5000200;28;20060;-76
2023/03/08 03:41:46;;;;;;;1999.90;999.90;;;10.70;99.90;;;;;;5033080;28;20057;-76
2023/03/08 03:44:11;;;;;;;1999.90;999.90;;;10.60;99.90;;;;;;5033691;28;20072;-76
2023/03/08 03:46:37;;;;;;;1999.90;999.90;;;10.60;99.90;;;;;;5019043;28;20054;-77
2023/03/08 03:49:03;;;;;;;1999.90;999.90;;;10.60;99.90;;;;;;5013777;28;20026;-80
2023/03/08 03:51:28;;;;;;;1999.90;999.90;;;10.60;99.90;;;;;;5013293;28;20034;-76
2023/03/08 03:53:54;;;;;;;1999.90;999.90;;;10.50;99.90;;;;;;5013219;28;20424;-78
2023/03/08 03:56:23;;;;;;;1999.90;999.90;;;10.50;99.90;;;;;;5012105;28;20052;-76
2023/03/08 03:58:49;;;;;;;1999.90;999.90;;;10.50;99.90;;;;;;5013547;28;20108;-76
2023/03/08 04:01:21;;;;;;;1999.90;999.90;;;10.60;99.90;;;;;;5012993;28;20075;-76
2023/03/08 04:03:47;;;;;;;1999.90;999.90;;;10.60;99.90;;;;;;5012885;28;20033;-76
2023/03/08 04:06:22;;;;;;;1999.90;999.90;;;10.50;99.90;;;;;;5013233;28;20040;-76
2023/03/08 04:08:47;;;;;;;1999.90;999.90;;;10.50;99.90;;;;;;5013323;28;20080;-75
2023/03/08 04:11:16;;;;;;;1999.90;999.90;;;10.40;99.90;;;;;;5013374;28;20026;-75
2023/03/08 04:13:42;;;;;;;1999.90;999.90;;;10.50;99.90;;;;;;5013017;28;20028;-77
2023/03/08 04:16:25;;;;;;;1999.90;999.90;;;10.60;99.90;;;;;;4997776;28;20034;-75
2023/03/08 04:18:56;;;;;;;1999.90;999.90;;;10.70;99.90;;;;;;4992799;28;20026;-74
2023/03/08 04:21:23;;;;;;;1999.90;999.90;;;10.70;99.90;;;;;;4993669;28;20107;-75
2023/03/08 04:23:49;;;;;;;1999.90;999.90;;;10.80;99.90;;;;;;4993458;28;20060;-75
2023/03/08 04:26:15;;;;;;;1999.90;999.90;;;10.80;99.90;;;;;;4993564;28;20485;-75
2023/03/08 04:28:41;;;;;;;1999.90;999.90;;;10.80;99.90;;;;;;4993327;28;20478;-79
2023/03/08 04:31:27;;;;;;;1999.90;999.90;;;10.80;99.90;;;;;;4993386;28;20113;-75
2023/03/08 04:33:54;;;;;;;1999.90;999.90;;;10.80;99.90;;;;;;4993450;28;20048;-75
2023/03/08 04:36:20;;;;;;;1999.90;999.90;;;10.80;99.90;;;;;;4993393;28;20033;-74
2023/03/08 04:38:47;;;;;;;1999.90;999.90;;;10.80;99.90;;;;;;4992824;28;20109;-75
2023/03/08 04:41:14;;;;;;;1999.90;999.90;;;10.90;99.90;;;;;;5030137;28;20018;-75
2023/03/08 04:43:45;;;;;;;1999.90;999.90;;;10.90;99.90;;;;;;5032293;28;20503;-75
2023/03/08 04:46:12;;;;;;;1999.90;999.90;;;11.00;99.90;;;;;;5025030;28;20076;-75
2023/03/08 04:48:38;;;;;;;1999.90;999.90;;;11.00;99.90;;;;;;5016636;28;20034;-75
2023/03/08 04:51:06;;;;;;;1999.90;999.90;;;11.00;99.90;;;;;;5016818;28;20374;-75
2023/03/08 04:53:32;;;;;;;1999.90;999.90;;;11.00;99.90;;;;;;5016410;28;20108;-75
2023/03/08 04:55:59;;;;;;;1999.90;999.90;;;11.00;99.90;;;;;;5016728;28;20025;-75
2023/03/08 04:58:26;;;;;;;1999.90;999.90;;;11.00;99.90;;;;;;5016818;28;20025;-75
2023/03/08 05:00:52;;;;;;;1999.90;999.90;;;11.00;99.90;;;;;;5016461;28;20022;-74
2023/03/08 05:03:18;;;;;;;1999.90;999.90;;;11.00;99.90;;;;;;5015900;28;20032;-74
2023/03/08 05:05:45;;;;;;;1999.90;999.90;;;11.00;99.90;;;;;;5016270;28;20034;-74
2023/03/08 05:08:11;;;;;;;1999.90;999.90;;;11.10;99.90;;;;;;5016266;28;20026;-74
2023/03/08 05:10:37;;;;;;;1999.90;999.90;;;11.10;99.90;;;;;;5016533;28;20026;-75
2023/03/08 05:13:02;;;;;;;1999.90;999.90;;;11.10;99.90;;;;;;5016307;28;20021;-75
2023/03/08 05:15:28;;;;;;;1999.90;999.90;;;11.10;99.90;;;;;;5006237;28;20093;-74
2023/03/08 05:17:53;;;;;;;1999.90;999.90;;;11.10;99.90;;;;;;4996397;28;20026;-75
2023/03/08 05:20:19;;;;;;;1999.90;999.90;;;11.20;99.90;;;;;;4996626;28;20461;-74
2023/03/08 05:22:45;;;;;;;1999.90;999.90;;;11.20;99.90;;;;;;4996472;28;20030;-74
2023/03/08 05:25:11;;;;;;;1999.90;999.90;;;11.30;99.90;;;;;;4996554;28;20034;-74
2023/03/08 05:27:36;;;;;;;1999.90;999.90;;;11.30;99.90;;;;;;4996368;28;20026;-74
2023/03/08 05:30:03;;;;;;;1999.90;999.90;;;11.40;99.90;;;;;;5027836;28;20033;-74
2023/03/08 05:32:29;;;;;;;1999.90;999.90;;;11.40;99.90;;;;;;4996500;28;20037;-74
2023/03/08 05:34:54;;;;;;;1999.90;999.90;;;11.40;99.90;;;;;;4996194;28;20105;-75
2023/03/08 05:37:24;;;;;;;1999.90;999.90;;;11.40;99.90;;;;;;4995911;28;20433;-75
2023/03/08 05:39:50;;;;;;;1999.90;999.90;;;11.50;99.90;;;;;;5010530;28;20029;-75
2023/03/08 05:42:16;;;;;;;1999.90;999.90;;;11.50;99.90;;;;;;5035492;28;20103;-74
2023/03/08 05:44:41;;;;;;;1999.90;999.90;;;11.50;99.90;;;;;;5035561;28;20057;-75
2023/03/08 05:47:07;;;;;;;1999.90;999.90;;;11.50;99.90;;;;;;5017084;28;20049;-75
2023/03/08 05:49:33;;;;;;;1999.90;999.90;;;11.60;99.90;;;;;;5015328;28;20038;-75
2023/03/08 05:51:58;;;;;;;1999.90;999.90;;;11.60;99.90;;;;;;5015570;28;20026;-75
2023/03/08 05:54:24;;;;;;;1999.90;999.90;;;11.60;99.90;;;;;;5015412;28;20045;-75
2023/03/08 05:56:49;;;;;;;1999.90;999.90;;;11.60;99.90;;;;;;5013043;28;20023;-76
2023/03/08 05:59:15;;;;;;;1999.90;999.90;;;11.70;99.90;;;;;;5016152;28;20022;-74
2023/03/08 06:01:40;;;;;;;1999.90;999.90;;;11.80;99.90;;;;;;5014227;28;20084;-77
2023/03/08 06:04:06;;;;;;;1999.90;999.90;;;11.80;99.90;;;;;;5014419;28;20064;-75
2023/03/08 06:06:32;;;;;;;1999.90;999.90;;;11.70;99.90;;;;;;5015087;28;20022;-74
2023/03/08 06:08:57;;;;;;;1999.90;999.90;;;11.70;99.90;;;;;;5015215;28;20017;-75
2023/03/08 06:11:23;;;;;;;1999.90;999.90;;;11.70;99.90;;;;;;5015189;28;20018;-78
2023/03/08 06:13:49;;;;;;;1999.90;999.90;;;11.60;99.90;;;;;;5015047;28;20029;-77
2023/03/08 06:16:15;;;;;;;1999.90;999.90;;;11.70;99.90;;;;;;4998688;28;20478;-75
2023/03/08 06:18:41;;;;;;;1999.90;999.90;;;11.60;99.90;;;;;;4995239;28;20080;-75
2023/03/08 06:21:13;;;;;;;1999.90;999.90;;;11.70;99.90;;;;;;4995357;28;20064;-76
2023/03/08 06:23:39;;;;;;;1999.90;999.90;;;11.60;99.90;;;;;;4995360;28;20026;-77
2023/03/08 06:26:06;;;;;;;1999.90;999.90;;;11.60;99.90;;;;;;4995202;28;20153;-76
2023/03/08 06:28:32;;;;;;;1999.90;999.90;;;11.60;99.90;;;;;;5017927;28;20030;-79
2023/03/08 06:30:58;;;;;;;1999.90;999.90;;;11.60;99.90;;;;;;5007836;28;20037;-78
2023/03/08 06:33:27;;;;;;;1999.90;999.90;;;11.60;99.90;;;;;;5006144;28;20032;-76
2023/03/08 06:36:05;;;;;;;1999.90;999.90;;;11.60;99.90;;;;;;5007331;28;20030;-74
2023/03/08 06:38:33;;;;;;;1999.90;999.90;;;11.60;99.90;;;;;;5008548;28;20022;-77
2023/03/08 06:40:59;;;;;;;1999.90;999.90;;;11.60;99.90;;;;;;5023595;28;20029;-75
2023/03/08 06:43:25;;;;;;;1999.90;999.90;;;11.70;99.90;;;;;;5019837;28;20084;-77
2023/03/08 06:45:51;;;;;;;1999.90;999.90;;;11.60;99.90;;;;;;5006463;28;20033;-73
2023/03/08 06:48:17;;;;;;;1999.90;999.90;;;11.70;99.90;;;;;;5013522;28;20137;-76
2023/03/08 06:50:42;;;;;;;1999.90;999.90;;;11.70;99.90;;;;;;5013664;28;20595;-73
2023/03/08 06:53:09;;;;;;;1999.90;999.90;;;11.70;99.90;;;;;;5008764;28;20484;-74
2023/03/08 06:55:39;;;;;;;1999.90;999.90;;;11.70;99.90;;;;;;5013468;28;20036;-76
2023/03/08 06:58:05;;;;;;;1999.90;999.90;;;11.70;99.90;;;;;;5013497;28;20117;-78
2023/03/08 07:00:31;;;;;;;1999.90;999.90;;;11.60;99.90;;;;;;5017316;28;20441;-74
2023/03/08 07:02:57;;;;;;;1999.90;999.90;;;11.60;99.90;;;;;;5010917;28;20034;-74
2023/03/08 07:05:23;;;;;;;1999.90;999.90;;;11.60;99.90;;;;;;5026823;28;20059;-77
2023/03/08 07:07:48;;;;;;;1999.90;999.90;;;11.60;99.90;;;;;;5030445;28;20041;-74
2023/03/08 07:10:16;;;;;;;1999.90;999.90;;;11.60;99.90;;;;;;5030156;28;20056;-77
2023/03/08 07:12:47;;;;;;;1999.90;999.90;;;11.70;99.90;;;;;;5010299;28;20096;-74
2023/03/08 07:15:14;;;;;;;1999.90;999.90;;;11.80;99.90;;;;;;5009046;28;20044;-72
2023/03/08 07:17:43;;;;;;;1999.90;999.90;;;11.80;99.90;;;;;;5018426;28;20033;-71
2023/03/08 07:20:10;;;;;;;1999.90;999.90;;;11.80;99.90;;;;;;5020231;28;20034;-72
2023/03/08 07:22:35;;;;;;;1999.90;999.90;;;11.90;99.90;;;;;;5015913;28;20034;-73
2023/03/08 07:25:01;;;;;;;1999.90;999.90;;;11.90;99.90;;;;;;5010403;28;20041;-73
2023/03/08 07:27:27;;;;;;;1999.90;999.90;;;11.90;99.90;;;;;;5006085;28;20040;-73
2023/03/08 07:29:52;;;;;;;1999.90;999.90;;;11.90;99.90;;;;;;5009759;28;20378;-73
2023/03/08 07:32:18;;;;;;;1999.90;999.90;;;11.90;99.90;;;;;;5008200;28;20485;-72
2023/03/08 07:34:44;;;;;;;1999.90;999.90;;;11.80;99.90;;;;;;5009723;28;20033;-72
2023/03/08 07:37:11;;;;;;;1999.90;999.90;;;11.80;99.90;;;;;;5012673;28;20412;-74
2023/03/08 07:39:37;;;;;;;1999.90;999.90;;;11.80;99.90;;;;;;5011720;28;20029;-73
2023/03/08 07:42:03;;;;;;;1999.90;999.90;;;11.80;99.90;;;;;;5009060;28;20034;-74
2023/03/08 07:44:29;;;;;;;1999.90;999.90;;;11.80;99.90;;;;;;5008313;28;20072;-74
2023/03/08 07:46:54;;;;;;;1999.90;999.90;;;11.70;99.90;;;;;;5012986;28;20057;-73
2023/03/08 07:49:20;;;;;;;1999.90;999.90;;;11.80;99.90;;;;;;5009077;28;20103;-73
2023/03/08 07:51:48;;;;;;;1999.90;999.90;;;11.80;99.90;;;;;;5006307;28;20038;-72
2023/03/08 07:54:13;;;;;;;1999.90;999.90;;;11.70;99.90;;;;;;5006003;28;20384;-72
2023/03/08 07:56:39;;;;;;;1999.90;999.90;;;11.70;99.90;;;;;;5009119;28;20120;-74
2023/03/08 07:59:05;;;;;;;1999.90;999.90;;;11.70;99.90;;;;;;5006353;28;20030;-75
2023/03/08 08:01:31;;;;;;;1999.90;999.90;;;11.70;99.90;;;;;;5008573;28;20025;-74
2023/03/08 08:03:58;;;;;;;1999.90;999.90;;;11.70;99.90;;;;;;5013471;28;20021;-75
2023/03/08 08:06:24;;;;;;;1999.90;999.90;;;11.70;99.90;;;;;;5006669;28;20097;-74
2023/03/08 08:08:49;;;;;;;1999.90;999.90;;;11.70;99.90;;;;;;5009626;28;20030;-74
2023/03/08 08:11:18;;;;;;;1999.90;999.90;;;11.70;99.90;;;;;;5008824;28;20057;-75
2023/03/08 08:13:45;;;;;;;1999.90;999.90;;;11.80;99.90;;;;;;5008156;28;20021;-76
2023/03/08 08:16:12;;;;;;;1999.90;999.90;;;11.80;99.90;;;;;;5010296;28;20395;-75
2023/03/08 08:18:38;;;;;;;1999.90;999.90;;;11.90;99.90;;;;;;5007785;28;20018;-75
2023/03/08 08:21:10;;;;;;;1999.90;999.90;;;11.90;99.90;;;;;;5010088;28;20116;-75
2023/03/08 08:23:37;;;;;;;1999.90;999.90;;;11.90;99.90;;;;;;5007720;28;20033;-75
2023/03/08 08:26:08;;;;;;;1999.90;999.90;;;11.90;99.90;;;;;;5007847;28;20036;-75
2023/03/08 08:28:35;;;;;;;1999.90;999.90;;;11.90;99.90;;;;;;5007067;28;20066;-73
2023/03/08 08:31:03;;;;;;;1999.90;999.90;;;11.90;99.90;;;;;;5008684;28;20034;-73
2023/03/08 08:33:29;;;;;;;1999.90;999.90;;;11.90;99.90;;;;;;5008510;28;20041;-73
2023/03/08 08:35:56;;;;;;;1999.90;999.90;;;11.90;99.90;;;;;;5008330;28;20485;-74
2023/03/08 08:38:23;;;;;;;1999.90;999.90;;;11.90;99.90;;;;;;5007074;28;20034;-74
2023/03/08 08:40:49;;;;;;;1999.90;999.90;;;11.90;99.90;;;;;;5007462;28;20037;-73
2023/03/08 08:43:15;;;;;;;1999.90;999.90;;;11.90;99.90;;;;;;5008647;28;20026;-74
2023/03/08 08:45:45;;;;;;;1999.90;999.90;;;12.00;99.90;;;;;;5007498;28;20037;-73
2023/03/08 08:48:11;;;;;;;1999.90;999.90;;;12.00;99.90;;;;;;5007964;28;20208;-74
2023/03/08 08:50:39;;;;;;;1999.90;999.90;;;12.00;99.90;;;;;;4999445;28;20048;-73
2023/03/08 08:53:04;;;;;;;1999.90;999.90;;;12.00;99.90;;;;;;5006235;28;20040;-74
2023/03/08 08:55:30;;;;;;;1999.90;999.90;;;12.00;99.90;;;;;;5014080;28;20500;-73
2023/03/08 08:57:55;;;;;;;1999.90;999.90;;;12.10;99.90;;;;;;5008357;28;20030;-75
2023/03/08 09:00:21;;;;;;;1999.90;999.90;;;12.10;99.90;;;;;;5010579;28;20026;-74
2023/03/08 09:02:47;;;;;;;1999.90;999.90;;;12.10;99.90;;;;;;5008456;28;20029;-73
2023/03/08 09:05:12;;;;;;;1999.90;999.90;;;12.10;99.90;;;;;;5009210;28;20552;-75
2023/03/08 09:07:38;;;;;;;1999.90;999.90;;;12.10;99.90;;;;;;5002610;28;20034;-76
2023/03/08 09:10:04;;;;;;;1999.90;999.90;;;12.00;99.90;;;;;;5005943;28;20034;-76
2023/03/08 09:12:30;;;;;;;1999.90;999.90;;;12.00;99.90;;;;;;5009259;28;20389;-74
2023/03/08 09:14:55;;;;;;;1999.90;999.90;;;12.00;99.90;;;;;;5011104;28;20376;-74
2023/03/08 09:17:21;;;;;;;1999.90;999.90;;;12.00;99.90;;;;;;5010168;28;20021;-75
2023/03/08 09:19:47;;;;;;;1999.90;999.90;;;12.00;99.90;;;;;;5022124;28;20393;-74
2023/03/08 09:22:12;;;;;;;1999.90;999.90;;;12.00;99.90;;;;;;5013030;28;20025;-75
2023/03/08 09:24:38;;;;;;;1999.90;999.90;;;12.10;99.90;;;;;;5015300;28;20082;-75
2023/03/08 09:27:05;;;;;;;1999.90;999.90;;;12.10;99.90;;;;;;5015396;28;20060;-74
2023/03/08 09:29:31;;;;;;;1999.90;999.90;;;12.20;99.90;;;;;;5005476;28;20087;-76
2023/03/08 09:31:57;;;;;;;1999.90;999.90;;;12.30;99.90;;;;;;5023127;28;20041;-75
2023/03/08 09:34:23;;;;;;;1999.90;999.90;;;12.30;99.90;;;;;;5020928;28;20435;-76
2023/03/08 09:36:48;;;;;;;1999.90;999.90;;;12.40;99.90;;;;;;5011347;28;20025;-77
2023/03/08 09:39:14;;;;;;;1999.90;999.90;;;12.40;99.90;;;;;;5001455;28;20538;-77
2023/03/08 09:41:43;;;;;;;1999.90;999.90;;;12.40;99.90;;;;;;5010564;28;20102;-74
2023/03/08 09:44:42;;;;;;;1999.90;999.90;;;12.40;99.90;;;;;;5020718;28;20113;-75
2023/03/08 09:47:31;;;;;;;1999.90;999.90;;;12.40;99.90;;;;;;5016090;28;20358;-74
2023/03/08 09:50:08;;;;;;;1999.90;999.90;;;12.40;99.90;;;;;;5004252;28;20041;-75
2023/03/08 09:52:47;;;;;;;1999.90;999.90;;;12.50;99.90;;;;;;5004982;28;20088;-75
2023/03/08 09:55:26;;;;;;;1999.90;999.90;;;12.50;99.90;;;;;;5041091;28;20042;-74
2023/03/08 09:57:55;;;;;;;1999.90;999.90;;;12.50;99.90;;;;;;5022784;28;20101;-73
2023/03/08 10:00:28;;;;;;;1999.90;999.90;;;12.50;99.90;;;;;;5019949;28;20164;-73
2023/03/08 10:03:02;;;;;;;1999.90;999.90;;;12.60;99.90;;;;;;5020321;28;20025;-75
2023/03/08 10:05:31;;;;;;;1999.90;999.90;;;12.60;99.90;;;;;;5026075;28;20045;-75
2023/03/08 10:08:12;;;;;;;1999.90;999.90;;;12.60;99.90;;;;;;5020574;28;20030;-75
2023/03/08 10:10:47;;;;;;;1999.90;999.90;;;12.70;99.90;;;;;;5016903;28;20274;-73
2023/03/08 10:13:39;;;;;;;1999.90;999.90;;;12.80;99.90;;;;;;5016635;28;20014;-74
2023/03/08 10:16:36;;;;;;;1999.90;999.90;;;12.80;99.90;;;;;;4995466;28;20031;-74
2023/03/08 10:19:58;;;;;;;1999.90;999.90;;;12.90;99.90;;;;;;4997939;28;20048;-75
2023/03/08 10:22:33;;;;;;;1999.90;999.90;;;13.00;99.90;;;;;;4988618;28;20033;-75
2023/03/08 10:25:17;;;;;;;1999.90;999.90;;;13.00;99.90;;;;;;5022590;28;20128;-78
2023/03/08 10:27:47;;;;;;;1999.90;999.90;;;13.10;99.90;;;;;;5012963;28;20034;-77
2023/03/08 10:30:15;;;;;;;1999.90;999.90;;;13.10;99.90;;;;;;5021710;28;20072;-74
2023/03/08 10:32:43;;;;;;;1999.90;999.90;;;13.00;99.90;;;;;;5012828;28;20038;-74
2023/03/08 10:35:10;;;;;;;1999.90;999.90;;;13.10;99.90;;;;;;5025353;28;20133;-75
2023/03/08 10:37:36;;;;;;;1999.90;999.90;;;13.10;99.90;;;;;;5034519;28;20026;-77
2023/03/08 10:40:25;;;;;;;1999.90;999.90;;;13.00;99.90;;;;;;5005497;28;20561;-74
2023/03/08 10:42:58;;;;;;;1999.90;999.90;;;13.00;99.90;;;;;;5008497;28;20057;-74
2023/03/08 10:45:25;;;;;;;1999.90;999.90;;;13.00;99.90;;;;;;5013174;28;20030;-75
2023/03/08 10:47:58;;;;;;;1999.90;999.90;;;13.10;99.90;;;;;;5013970;28;20081;-74
2023/03/08 10:50:30;;;;;;;1999.90;999.90;;;13.00;99.90;;;;;;5015060;28;20066;-75
2023/03/08 10:53:17;;;;;;;1999.90;999.90;;;13.10;99.90;;;;;;5013810;28;20088;-74
2023/03/08 10:55:48;;;;;;;1999.90;999.90;;;13.10;99.90;;;;;;5025807;28;20049;-73
2023/03/08 10:58:43;;;;;;;1999.90;999.90;;;13.00;99.90;;;;;;5011660;28;20547;-76
2023/03/08 11:01:26;;;;;;;1999.90;999.90;;;13.00;99.90;;;;;;5012619;28;20101;-79
2023/03/08 11:04:04;;;;;;;1999.90;999.90;;;13.00;99.90;;;;;;5060971;28;20036;-78
2023/03/08 11:06:33;;;;;;;1999.90;999.90;;;13.10;99.90;;;;;;5006908;28;20179;-77
2023/03/08 11:09:01;;;;;;;1999.90;999.90;;;13.10;99.90;;;;;;5047391;28;20443;-78
2023/03/08 11:11:27;;;;;;;1999.90;999.90;;;13.10;99.90;;;;;;5015210;28;20053;-75
2023/03/08 11:13:53;;;;;;;1999.90;999.90;;;13.10;99.90;;;;;;5027838;28;20469;-76
2023/03/08 11:16:44;;;;;;;1999.90;999.90;;;13.20;99.90;;;;;;5015178;28;20033;-77
2023/03/08 11:19:33;;;;;;;1999.90;999.90;;;13.10;99.90;;;;;;5009699;28;20034;-78
2023/03/08 11:22:10;;;;;;;1999.90;999.90;;;13.10;99.90;;;;;;5002511;28;20044;-77
2023/03/08 11:24:36;;;;;;;1999.90;999.90;;;13.20;99.90;;;;;;5010315;28;20026;-76
2023/03/08 11:27:23;;;;;;;1999.90;999.90;;;13.30;99.90;;;;;;5012216;28;20589;-78
2023/03/08 11:30:01;;;;;;;1999.90;999.90;;;13.30;99.90;;;;;;5001577;28;20033;-76
2023/03/08 11:32:35;;;;;;;1999.90;999.90;;;13.40;99.90;;;;;;5006185;28;20550;-77
2023/03/08 11:35:18;;;;;;;1999.90;999.90;;;13.50;99.90;;;;;;5006815;28;20066;-76
2023/03/08 11:38:01;;;;;;;1999.90;999.90;;;13.60;99.90;;;;;;5002017;28;20054;-76
2023/03/08 11:40:38;;;;;;;1999.90;999.90;;;13.70;99.90;;;;;;5008438;28;20030;-76
2023/03/08 11:43:34;;;;;;;1999.90;999.90;;;13.70;99.90;;;;;;5014641;28;20033;-77
2023/03/08 11:46:22;;;;;;;1999.90;999.90;;;14.00;99.90;;;;;;5009966;28;20029;-77
2023/03/08 11:49:17;;;;;;;1999.90;999.90;;;14.10;99.90;;;;;;5006105;28;20056;-77
2023/03/08 11:51:47;;;;;;;1999.90;999.90;;;14.40;99.90;;;;;;5016129;28;20032;-74
2023/03/08 11:54:34;;;;;;;1999.90;999.90;;;14.70;99.90;;;;;;4999132;28;20520;-75
2023/03/08 11:57:03;;;;;;;1999.90;999.90;;;14.50;99.90;;;;;;4996104;28;20580;-75
2023/03/08 11:59:38;;;;;;;1999.90;999.90;;;14.50;99.90;;;;;;5005887;28;20040;-74
2023/03/08 12:02:06;;;;;;;1999.90;999.90;;;14.60;99.90;;;;;;5015222;28;20049;-74
2023/03/08 12:04:44;;;;;;;1999.90;999.90;;;14.80;99.90;;;;;;5013138;28;20041;-74
2023/03/08 12:07:38;;;;;;;1999.90;999.90;;;14.90;99.90;;;;;;5010956;28;20037;-73